createdAt,value
2016-02-07T00:01:45.346Z,0
2016-02-07T00:02:44.115Z,0
2016-02-07T00:03:09.333Z,0
2016-02-07T00:04:01.054Z,0
2016-02-07T00:05:58.248Z,0
2016-02-07T00:06:19.966Z,0
2016-02-07T00:07:38.890Z,0
2016-02-07T00:08:15.768Z,0
2016-02-07T00:10:04.338Z,0
2016-02-07T00:10:34.353Z,0
2016-02-07T00:12:21.280Z,0
2016-02-07T00:12:38.093Z,0
2016-02-07T00:13:35.690Z,0
2016-02-07T00:14:51.789Z,0
2016-02-07T00:15:54.808Z,0
2016-02-07T00:16:53.346Z,0
2016-02-07T00:18:36.973Z,0
2016-02-07T00:19:15.257Z,0
2016-02-07T00:19:49.635Z,0
2016-02-07T00:21:47.220Z,0
2016-02-07T00:21:59.783Z,0
2016-02-07T00:24:15.100Z,0
2016-02-07T00:25:15.074Z,0
2016-02-07T00:26:27.828Z,0
2016-02-07T00:27:21.408Z,0
2016-02-07T00:29:12.180Z,0
2016-02-07T00:29:24.759Z,0
2016-02-07T00:30:43.985Z,0
2016-02-07T00:31:25.409Z,0
2016-02-07T00:34:05.731Z,0
2016-02-07T00:34:52.829Z,0
2016-02-07T00:36:11.425Z,0
2016-02-07T00:36:54.506Z,0
2016-02-07T00:38:11.555Z,0
2016-02-07T00:38:59.449Z,0
2016-02-07T00:39:40.886Z,0
2016-02-07T00:41:37.878Z,0
2016-02-07T00:41:50.459Z,0
2016-02-07T00:42:56.730Z,0
2016-02-07T00:43:56.763Z,0
2016-02-07T00:45:03.250Z,0
2016-02-07T00:46:03.394Z,0
2016-02-07T00:47:09.771Z,0
2016-02-07T00:48:04.774Z,0
2016-02-07T00:49:47.621Z,0
2016-02-07T00:50:12.919Z,0
2016-02-07T00:52:09.847Z,0
2016-02-07T00:54:19.232Z,0
2016-02-07T00:55:25.640Z,0
2016-02-07T00:56:25.815Z,0
2016-02-07T00:57:13.771Z,0
2016-02-07T00:58:32.195Z,0
2016-02-07T00:59:25.792Z,0
2016-02-07T01:00:38.795Z,0
2016-02-07T01:01:32.267Z,0
2016-02-07T01:02:44.426Z,0
2016-02-07T01:04:10.135Z,0
2016-02-07T01:04:41.979Z,0
2016-02-07T01:05:22.763Z,0
2016-02-07T01:06:49.938Z,0
2016-02-07T01:07:29.081Z,0
2016-02-07T01:08:49.916Z,0
2016-02-07T01:09:35.652Z,0
2016-02-07T01:10:22.889Z,0
2016-02-07T01:11:23.096Z,0
2016-02-07T01:12:22.927Z,0
2016-02-07T01:13:24.398Z,0
2016-02-07T01:14:35.760Z,0
2016-02-07T01:15:23.653Z,0
2016-02-07T01:16:26.079Z,0
2016-02-07T01:17:23.082Z,0
2016-02-07T01:18:23.148Z,0
2016-02-07T01:19:23.165Z,0
2016-02-07T01:20:35.981Z,0
2016-02-07T01:21:23.796Z,0
2016-02-07T01:22:48.893Z,0
2016-02-07T01:23:29.568Z,0
2016-02-07T01:24:42.477Z,0
2016-02-07T01:25:23.933Z,0
2016-02-07T01:26:23.967Z,0
2016-02-07T01:27:23.360Z,0
2016-02-07T01:28:23.425Z,0
2016-02-07T01:29:23.851Z,0
2016-02-07T01:30:24.072Z,0
2016-02-07T01:31:23.888Z,0
2016-02-07T01:33:14.033Z,0
2016-02-07T01:33:26.627Z,0
2016-02-07T01:35:36.211Z,0
2016-02-07T01:37:02.041Z,0
2016-02-07T01:37:43.142Z,0
2016-02-07T01:39:01.972Z,0
2016-02-07T01:39:55.522Z,0
2016-02-07T01:41:07.919Z,0
2016-02-07T01:42:33.202Z,0
2016-02-07T01:43:17.080Z,0
2016-02-07T01:43:45.924Z,0
2016-02-07T01:45:17.148Z,0
2016-02-07T01:45:52.163Z,0
2016-02-07T01:46:47.307Z,0
2016-02-07T01:47:58.653Z,0
2016-02-07T01:48:45.999Z,0
2016-02-07T01:50:36.475Z,0
2016-02-07T01:50:49.131Z,0
2016-02-07T01:51:49.180Z,0
2016-02-07T01:53:01.949Z,0
2016-02-07T01:54:01.983Z,0
2016-02-07T01:55:08.441Z,0
2016-02-07T01:56:08.477Z,0
2016-02-07T01:57:15.011Z,0
2016-02-07T01:59:18.080Z,0
2016-02-07T01:59:58.955Z,0
2016-02-07T02:01:30.257Z,0
2016-02-07T02:01:59.116Z,0
2016-02-07T02:03:59.459Z,0
2016-02-07T02:04:59.026Z,0
2016-02-07T02:06:11.814Z,0
2016-02-07T02:07:11.770Z,0
2016-02-07T02:08:11.779Z,0
2016-02-07T02:09:18.324Z,0
2016-02-07T02:10:11.899Z,0
2016-02-07T02:11:18.318Z,0
2016-02-07T02:11:59.771Z,0
2016-02-07T02:12:59.831Z,0
2016-02-07T02:13:59.814Z,0
2016-02-07T02:14:59.238Z,0
2016-02-07T02:16:11.989Z,0
2016-02-07T02:16:59.864Z,0
2016-02-07T02:17:59.349Z,0
2016-02-07T02:18:59.319Z,0
2016-02-07T02:19:59.962Z,0
2016-02-07T02:20:59.979Z,0
2016-02-07T02:22:00.061Z,0
2016-02-07T02:22:59.469Z,0
2016-02-07T02:23:59.691Z,0
2016-02-07T02:24:59.915Z,0
2016-02-07T02:26:00.136Z,0
2016-02-07T02:27:12.350Z,0
2016-02-07T02:28:18.789Z,0
2016-02-07T02:29:00.812Z,0
2016-02-07T02:30:01.533Z,0
2016-02-07T02:31:00.020Z,0
2016-02-07T02:32:12.415Z,0
2016-02-07T02:33:01.150Z,0
2016-02-07T02:34:50.265Z,0
2016-02-07T02:35:09.081Z,0
2016-02-07T02:36:02.862Z,0
2016-02-07T02:37:02.942Z,0
2016-02-07T02:38:02.914Z,0
2016-02-07T02:39:02.932Z,0
2016-02-07T02:40:09.265Z,0
2016-02-07T02:41:15.800Z,0
2016-02-07T02:42:03.034Z,0
2016-02-07T02:43:03.025Z,0
2016-02-07T02:44:09.344Z,0
2016-02-07T02:45:03.172Z,0
2016-02-07T02:46:15.897Z,0
2016-02-07T02:47:15.868Z,0
2016-02-07T02:48:03.181Z,0
2016-02-07T02:49:03.246Z,0
2016-02-07T02:50:16.001Z,0
2016-02-07T02:51:03.893Z,0
2016-02-07T02:52:03.318Z,0
2016-02-07T02:53:04.801Z,0
2016-02-07T02:54:16.072Z,0
2016-02-07T02:55:22.591Z,0
2016-02-07T02:56:29.108Z,0
2016-02-07T02:57:29.220Z,0
2016-02-07T02:58:34.772Z,0
2016-02-07T03:00:03.696Z,0
2016-02-07T03:01:03.621Z,0
2016-02-07T03:02:03.592Z,0
2016-02-07T03:03:16.379Z,0
2016-02-07T03:04:03.723Z,0
2016-02-07T03:05:22.843Z,0
2016-02-07T03:06:03.906Z,0
2016-02-07T03:07:22.911Z,0
2016-02-07T03:08:03.739Z,0
2016-02-07T03:09:10.042Z,0
2016-02-07T03:10:03.870Z,0
2016-02-07T03:11:05.263Z,0
2016-02-07T03:12:16.584Z,0
2016-02-07T03:13:07.021Z,0
2016-02-07T03:14:16.652Z,0
2016-02-07T03:15:23.154Z,0
2016-02-07T03:16:23.173Z,0
2016-02-07T03:18:26.679Z,0
2016-02-07T03:18:39.257Z,0
2016-02-07T03:19:39.260Z,0
2016-02-07T03:20:40.763Z,0
2016-02-07T03:21:46.237Z,0
2016-02-07T03:22:39.412Z,0
2016-02-07T03:23:39.399Z,0
2016-02-07T03:24:52.151Z,0
2016-02-07T03:25:39.451Z,0
2016-02-07T03:27:42.659Z,0
2016-02-07T03:29:01.865Z,0
2016-02-07T03:29:49.024Z,0
2016-02-07T03:30:42.808Z,0
2016-02-07T03:31:42.842Z,0
2016-02-07T03:32:42.817Z,0
2016-02-07T03:33:42.820Z,0
2016-02-07T03:34:42.915Z,0
2016-02-07T03:35:42.934Z,0
2016-02-07T03:36:42.936Z,0
2016-02-07T03:37:49.237Z,0
2016-02-07T03:38:43.067Z,0
2016-02-07T03:39:43.023Z,0
2016-02-07T03:40:44.495Z,0
2016-02-07T03:41:49.357Z,0
2016-02-07T03:42:46.141Z,0
2016-02-07T03:43:44.613Z,0
2016-02-07T03:44:55.881Z,0
2016-02-07T03:45:55.900Z,0
2016-02-07T03:46:55.902Z,0
2016-02-07T03:47:43.297Z,0
2016-02-07T03:49:02.471Z,0
2016-02-07T03:49:43.273Z,0
2016-02-07T03:51:08.962Z,0
2016-02-07T03:51:56.075Z,0
2016-02-07T03:52:43.406Z,0
2016-02-07T03:54:52.786Z,0
2016-02-07T03:55:46.570Z,0
2016-02-07T03:56:46.650Z,0
2016-02-07T03:57:46.606Z,0
2016-02-07T03:58:46.625Z,0
2016-02-07T03:59:59.425Z,0
2016-02-07T04:00:46.709Z,0
2016-02-07T04:02:05.934Z,0
2016-02-07T04:02:53.014Z,0
2016-02-07T04:03:53.031Z,0
2016-02-07T04:04:59.566Z,0
2016-02-07T04:05:48.224Z,0
2016-02-07T04:07:06.056Z,0
2016-02-07T04:07:48.153Z,0
2016-02-07T04:08:46.952Z,0
2016-02-07T04:09:48.344Z,0
2016-02-07T04:10:46.972Z,0
2016-02-07T04:11:59.772Z,0
2016-02-07T04:12:47.103Z,0
2016-02-07T04:14:06.355Z,0
2016-02-07T04:14:48.483Z,0
2016-02-07T04:15:47.110Z,0
2016-02-07T04:16:59.911Z,0
2016-02-07T04:17:47.006Z,0
2016-02-07T04:18:59.931Z,0
2016-02-07T04:19:47.215Z,0
2016-02-07T04:21:37.799Z,0
2016-02-07T04:22:56.490Z,0
2016-02-07T04:23:56.507Z,0
2016-02-07T04:25:09.354Z,0
2016-02-07T04:25:56.575Z,0
2016-02-07T04:27:22.378Z,0
2016-02-07T04:28:09.378Z,0
2016-02-07T04:28:56.756Z,0
2016-02-07T04:29:56.664Z,0
2016-02-07T04:31:02.854Z,0
2016-02-07T04:31:56.748Z,0
2016-02-07T04:33:47.347Z,0
2016-02-07T04:34:03.050Z,0
2016-02-07T04:34:59.928Z,0
2016-02-07T04:36:06.149Z,0
2016-02-07T04:37:00.001Z,0
2016-02-07T04:38:06.363Z,0
2016-02-07T04:39:06.318Z,0
2016-02-07T04:40:06.540Z,0
2016-02-07T04:41:12.939Z,0
2016-02-07T04:42:19.351Z,0
2016-02-07T04:43:00.289Z,0
2016-02-07T04:44:00.181Z,0
2016-02-07T04:45:00.325Z,0
2016-02-07T04:46:00.234Z,0
2016-02-07T04:47:00.289Z,0
2016-02-07T04:48:12.683Z,0
2016-02-07T04:49:05.482Z,0
2016-02-07T04:51:11.441Z,0
2016-02-07T04:52:36.086Z,0
2016-02-07T04:53:23.292Z,0
2016-02-07T04:54:36.326Z,0
2016-02-07T04:55:10.685Z,0
2016-02-07T04:56:11.751Z,0
2016-02-07T04:57:18.603Z,0
2016-02-07T04:58:12.884Z,0
2016-02-07T04:59:27.093Z,0
2016-02-07T05:00:29.361Z,0
2016-02-07T05:01:44.441Z,0
2016-02-07T05:02:45.633Z,0
2016-02-07T05:04:14.685Z,0
2016-02-07T05:04:58.497Z,0
2016-02-07T05:05:33.063Z,0
2016-02-07T05:06:50.003Z,0
2016-02-07T05:07:45.678Z,0
2016-02-07T05:08:39.197Z,0
2016-02-07T05:10:29.610Z,0
2016-02-07T05:11:04.141Z,0
2016-02-07T05:12:58.740Z,0
2016-02-07T05:13:44.117Z,0
2016-02-07T05:14:47.073Z,0
2016-02-07T05:15:45.423Z,0
2016-02-07T05:16:57.762Z,0
2016-02-07T05:17:57.171Z,0
2016-02-07T05:18:53.268Z,0
2016-02-07T05:19:52.661Z,0
2016-02-07T05:20:44.320Z,0
2016-02-07T05:21:48.635Z,0
2016-02-07T05:23:51.610Z,0
2016-02-07T05:24:52.926Z,0
2016-02-07T05:27:19.871Z,0
2016-02-07T05:28:21.092Z,0
2016-02-07T05:28:54.827Z,0
2016-02-07T05:30:50.489Z,0
2016-02-07T05:31:03.192Z,0
2016-02-07T05:33:04.807Z,0
2016-02-07T05:33:20.403Z,0
2016-02-07T05:35:24.752Z,0
2016-02-07T05:35:45.799Z,0
2016-02-07T05:36:44.709Z,0
2016-02-07T05:38:36.980Z,0
2016-02-07T05:39:28.169Z,0
2016-02-07T05:42:23.151Z,0
2016-02-07T05:43:51.357Z,0
2016-02-07T05:44:41.956Z,0
2016-02-07T05:47:53.964Z,0
2016-02-07T05:48:32.200Z,0
2016-02-07T05:49:06.560Z,0
2016-02-07T05:50:06.644Z,0
2016-02-07T05:51:19.352Z,0
2016-02-07T05:52:06.649Z,0
2016-02-07T05:54:35.438Z,0
2016-02-07T05:57:28.197Z,0
2016-02-07T05:58:03.416Z,0
2016-02-07T05:59:29.109Z,0
2016-02-07T06:00:10.109Z,0
2016-02-07T06:01:22.036Z,0
2016-02-07T06:02:10.567Z,0
2016-02-07T06:04:45.311Z,0
2016-02-07T06:05:00.639Z,0
2016-02-07T06:06:00.485Z,0
2016-02-07T06:07:00.711Z,0
2016-02-07T06:08:00.542Z,0
2016-02-07T06:09:13.358Z,0
2016-02-07T06:10:00.595Z,0
2016-02-07T06:11:19.823Z,0
2016-02-07T06:12:00.666Z,0
2016-02-07T06:14:03.921Z,0
2016-02-07T06:14:22.768Z,0
2016-02-07T06:16:31.868Z,0
2016-02-07T06:17:41.230Z,0
2016-02-07T06:17:53.777Z,0
2016-02-07T06:19:52.235Z,0
2016-02-07T06:20:04.829Z,0
2016-02-07T06:21:04.832Z,0
2016-02-07T06:22:04.944Z,0
2016-02-07T06:23:17.665Z,0
2016-02-07T06:24:05.684Z,0
2016-02-07T06:25:24.142Z,0
2016-02-07T06:26:12.658Z,0
2016-02-07T06:28:01.804Z,0
2016-02-07T06:29:24.122Z,0
2016-02-07T06:30:27.328Z,0
2016-02-07T06:31:36.940Z,0
2016-02-07T06:32:40.021Z,0
2016-02-07T06:33:49.587Z,0
2016-02-07T06:34:21.355Z,0
2016-02-07T06:35:02.184Z,0
2016-02-07T06:36:02.201Z,0
2016-02-07T06:37:08.534Z,0
2016-02-07T06:38:02.443Z,0
2016-02-07T06:39:15.055Z,0
2016-02-07T06:40:03.730Z,0
2016-02-07T06:41:21.547Z,0
2016-02-07T06:42:05.422Z,0
2016-02-07T06:43:52.914Z,0
2016-02-07T06:44:06.898Z,0
2016-02-07T06:46:02.498Z,0
2016-02-07T06:46:15.107Z,0
2016-02-07T06:48:12.065Z,0
2016-02-07T06:49:46.978Z,0
2016-02-07T06:50:27.763Z,0
2016-02-07T06:52:24.831Z,0
2016-02-07T06:54:12.600Z,0
2016-02-07T06:56:15.386Z,0
2016-02-07T06:56:53.670Z,0
2016-02-07T06:57:27.985Z,0
2016-02-07T06:59:30.632Z,0
2016-02-07T07:00:02.414Z,0
2016-02-07T07:00:43.369Z,0
2016-02-07T07:03:18.469Z,0
2016-02-07T07:04:12.101Z,0
2016-02-07T07:05:24.200Z,0
2016-02-07T07:06:12.201Z,0
2016-02-07T07:07:24.348Z,0
2016-02-07T07:08:18.645Z,0
2016-02-07T07:08:53.022Z,0
2016-02-07T07:10:55.763Z,0
2016-02-07T07:11:08.404Z,0
2016-02-07T07:12:08.375Z,0
2016-02-07T07:13:21.112Z,0
2016-02-07T07:14:08.708Z,0
2016-02-07T07:15:27.672Z,0
2016-02-07T07:16:21.329Z,0
2016-02-07T07:17:39.834Z,5
2016-02-07T07:18:34.212Z,5
2016-02-07T07:19:39.890Z,5
2016-02-07T07:20:39.907Z,5
2016-02-07T07:21:08.626Z,5
2016-02-07T07:23:08.662Z,5
2016-02-07T07:24:08.716Z,5
2016-02-07T07:25:09.125Z,5
2016-02-07T07:26:09.597Z,5
2016-02-07T07:27:15.334Z,5
2016-02-07T07:28:08.932Z,5
2016-02-07T07:29:09.105Z,5
2016-02-07T07:30:09.000Z,0
2016-02-07T07:31:09.033Z,0
2016-02-07T07:32:08.977Z,0
2016-02-07T07:33:09.058Z,5
2016-02-07T07:34:08.983Z,5
2016-02-07T07:35:09.063Z,5
2016-02-07T07:36:09.175Z,5
2016-02-07T07:37:09.085Z,5
2016-02-07T07:38:09.134Z,5
2016-02-07T07:39:09.184Z,5
2016-02-07T07:40:08.547Z,5
2016-02-07T07:41:09.174Z,5
2016-02-07T07:42:09.193Z,5
2016-02-07T07:43:09.258Z,0
2016-02-07T07:44:09.260Z,0
2016-02-07T07:45:09.284Z,0
2016-02-07T07:46:09.302Z,0
2016-02-07T07:47:09.407Z,0
2016-02-07T07:48:09.362Z,0
2016-02-07T07:49:09.287Z,0
2016-02-07T07:50:09.430Z,0
2016-02-07T07:51:09.479Z,0
2016-02-07T07:52:09.482Z,0
2016-02-07T07:53:09.518Z,0
2016-02-07T07:54:09.535Z,0
2016-02-07T07:55:09.554Z,5
2016-02-07T07:56:09.618Z,5
2016-02-07T07:57:09.638Z,5
2016-02-07T07:58:09.718Z,5
2016-02-07T07:59:09.704Z,5
2016-02-07T08:00:09.754Z,5
2016-02-07T08:01:09.758Z,5
2016-02-07T08:02:09.777Z,5
2016-02-07T08:03:09.811Z,5
2016-02-07T08:04:09.829Z,10
2016-02-07T08:05:09.941Z,10
2016-02-07T08:06:09.882Z,10
2016-02-07T08:07:09.917Z,10
2016-02-07T08:08:09.966Z,5
2016-02-07T08:09:10.124Z,5
2016-02-07T08:10:09.971Z,5
2016-02-07T08:11:10.067Z,5
2016-02-07T08:12:11.524Z,5
2016-02-07T08:13:11.480Z,5
2016-02-07T08:14:10.392Z,5
2016-02-07T08:15:10.286Z,5
2016-02-07T08:16:10.275Z,5
2016-02-07T08:17:10.308Z,5
2016-02-07T08:18:10.514Z,5
2016-02-07T08:19:10.253Z,5
2016-02-07T08:20:10.474Z,5
2016-02-07T08:21:10.352Z,5
2016-02-07T08:22:10.480Z,10
2016-02-07T08:23:10.373Z,10
2016-02-07T08:24:10.485Z,15
2016-02-07T08:25:10.409Z,15
2016-02-07T08:26:10.507Z,15
2016-02-07T08:27:10.684Z,20
2016-02-07T08:28:10.499Z,15
2016-02-07T08:29:10.658Z,15
2016-02-07T08:30:10.567Z,20
2016-02-07T08:31:10.678Z,25
2016-02-07T08:32:10.635Z,25
2016-02-07T08:33:10.669Z,25
2016-02-07T08:34:10.688Z,30
2016-02-07T08:35:10.691Z,30
2016-02-07T08:36:10.710Z,30
2016-02-07T08:37:10.619Z,25
2016-02-07T08:38:10.809Z,30
2016-02-07T08:39:10.811Z,30
2016-02-07T08:40:12.255Z,30
2016-02-07T08:41:10.882Z,30
2016-02-07T08:42:10.964Z,30
2016-02-07T08:43:10.950Z,30
2016-02-07T08:44:10.968Z,30
2016-02-07T08:45:10.987Z,30
2016-02-07T08:46:11.013Z,30
2016-02-07T08:47:11.000Z,30
2016-02-07T08:48:11.082Z,30
2016-02-07T08:49:11.130Z,30
2016-02-07T08:50:11.149Z,35
2016-02-07T08:51:11.261Z,35
2016-02-07T08:52:11.201Z,35
2016-02-07T08:53:11.266Z,35
2016-02-07T08:54:11.239Z,35
2016-02-07T08:55:11.288Z,35
2016-02-07T08:56:11.342Z,35
2016-02-07T08:57:11.345Z,30
2016-02-07T08:58:11.347Z,30
2016-02-07T08:59:11.444Z,30
2016-02-07T09:00:11.446Z,30
2016-02-07T09:01:11.511Z,30
2016-02-07T09:02:24.200Z,25
2016-02-07T09:03:11.484Z,25
2016-02-07T09:04:11.612Z,30
2016-02-07T09:05:11.584Z,35
2016-02-07T09:06:11.601Z,35
2016-02-07T09:07:11.698Z,35
2016-02-07T09:08:11.700Z,40
2016-02-07T09:09:11.797Z,40
2016-02-07T09:10:11.705Z,40
2016-02-07T09:11:11.756Z,40
2016-02-07T09:12:24.492Z,40
2016-02-07T09:13:18.073Z,40
2016-02-07T09:14:11.781Z,40
2016-02-07T09:15:13.363Z,40
2016-02-07T09:16:11.866Z,40
2016-02-07T09:17:11.900Z,35
2016-02-07T09:18:11.951Z,35
2016-02-07T09:19:11.969Z,45
2016-02-07T09:20:11.992Z,45
2016-02-07T09:21:11.496Z,40
2016-02-07T09:22:12.092Z,40
2016-02-07T09:23:12.065Z,30
2016-02-07T09:24:12.098Z,30
2016-02-07T09:25:11.992Z,30
2016-02-07T09:26:12.198Z,30
2016-02-07T09:27:12.217Z,30
2016-02-07T09:28:24.926Z,30
2016-02-07T09:29:12.273Z,35
2016-02-07T09:30:24.979Z,30
2016-02-07T09:31:12.278Z,30
2016-02-07T09:32:12.328Z,30
2016-02-07T09:33:19.225Z,30
2016-02-07T09:34:13.008Z,30
2016-02-07T09:35:25.168Z,35
2016-02-07T09:36:12.424Z,30
2016-02-07T09:37:12.506Z,25
2016-02-07T09:38:13.086Z,25
2016-02-07T09:39:12.541Z,25
2016-02-07T09:40:12.747Z,30
2016-02-07T09:41:12.626Z,25
2016-02-07T09:42:12.815Z,25
2016-02-07T09:43:12.646Z,25
2016-02-07T09:44:12.712Z,25
2016-02-07T09:45:15.745Z,25
2016-02-07T09:46:12.968Z,25
2016-02-07T09:47:12.751Z,25
2016-02-07T09:48:12.801Z,25
2016-02-07T09:49:25.712Z,20
2016-02-07T09:50:12.935Z,20
2016-02-07T09:51:32.081Z,25
2016-02-07T09:52:12.878Z,25
2016-02-07T09:53:12.973Z,30
2016-02-07T09:54:12.929Z,40
2016-02-07T09:55:13.072Z,35
2016-02-07T09:56:13.028Z,35
2016-02-07T09:57:13.079Z,30
2016-02-07T09:58:13.082Z,30
2016-02-07T09:59:13.116Z,30
2016-02-07T10:00:13.244Z,30
2016-02-07T10:01:13.153Z,35
2016-02-07T10:02:13.032Z,35
2016-02-07T10:03:13.191Z,35
2016-02-07T10:04:13.255Z,35
2016-02-07T10:05:13.259Z,35
2016-02-07T10:06:13.653Z,40
2016-02-07T10:07:13.467Z,45
2016-02-07T10:08:13.454Z,55
2016-02-07T10:09:13.504Z,55
2016-02-07T10:10:13.445Z,40
2016-02-07T10:11:13.292Z,30
2016-02-07T10:12:13.481Z,30
2016-02-07T10:13:13.688Z,35
2016-02-07T10:14:13.549Z,40
2016-02-07T10:15:20.053Z,40
2016-02-07T10:16:13.617Z,30
2016-02-07T10:17:26.355Z,30
2016-02-07T10:18:13.639Z,40
2016-02-07T10:19:13.682Z,45
2016-02-07T10:20:13.872Z,35
2016-02-07T10:21:13.797Z,45
2016-02-07T10:22:13.769Z,45
2016-02-07T10:23:13.806Z,40
2016-02-07T10:24:13.855Z,40
2016-02-07T10:25:13.843Z,35
2016-02-07T10:26:13.924Z,30
2016-02-07T10:27:13.895Z,35
2016-02-07T10:28:13.976Z,25
2016-02-07T10:29:13.964Z,15
2016-02-07T10:30:14.186Z,15
2016-02-07T10:31:14.079Z,10
2016-02-07T10:32:14.082Z,10
2016-02-07T10:33:14.210Z,10
2016-02-07T10:34:14.103Z,10
2016-02-07T10:35:14.169Z,10
2016-02-07T10:36:14.157Z,15
2016-02-07T10:37:14.237Z,20
2016-02-07T10:38:14.209Z,20
2016-02-07T10:39:14.138Z,20
2016-02-07T10:40:14.297Z,15
2016-02-07T10:41:14.315Z,20
2016-02-07T10:42:14.349Z,15
2016-02-07T10:43:14.413Z,15
2016-02-07T10:44:14.574Z,15
2016-02-07T10:45:14.467Z,10
2016-02-07T10:46:14.470Z,10
2016-02-07T10:47:14.520Z,10
2016-02-07T10:48:14.506Z,15
2016-02-07T10:49:14.634Z,15
2016-02-07T10:50:14.590Z,20
2016-02-07T10:51:14.642Z,30
2016-02-07T10:52:14.617Z,30
2016-02-07T10:53:21.026Z,35
2016-02-07T10:54:27.434Z,40
2016-02-07T10:55:14.734Z,35
2016-02-07T10:56:27.534Z,55
2016-02-07T10:57:14.786Z,75
2016-02-07T10:58:14.821Z,80
2016-02-07T10:59:14.823Z,80
2016-02-07T11:00:14.858Z,80
2016-02-07T11:01:14.860Z,80
2016-02-07T11:02:14.973Z,75
2016-02-07T11:03:14.928Z,70
2016-02-07T11:04:15.056Z,70
2016-02-07T11:05:15.029Z,70
2016-02-07T11:06:15.094Z,70
2016-02-07T11:07:15.081Z,75
2016-02-07T11:08:27.912Z,70
2016-02-07T11:09:15.164Z,70
2016-02-07T11:10:15.141Z,65
2016-02-07T11:11:15.148Z,65
2016-02-07T11:12:15.153Z,65
2016-02-07T11:13:15.253Z,65
2016-02-07T11:14:15.211Z,70
2016-02-07T11:15:15.334Z,70
2016-02-07T11:16:15.254Z,75
2016-02-07T11:17:15.299Z,70
2016-02-07T11:18:15.313Z,65
2016-02-07T11:19:15.314Z,65
2016-02-07T11:20:15.443Z,60
2016-02-07T11:21:15.398Z,60
2016-02-07T11:22:15.461Z,60
2016-02-07T11:23:15.415Z,60
2016-02-07T11:24:15.574Z,60
2016-02-07T11:25:15.496Z,55
2016-02-07T11:26:15.498Z,55
2016-02-07T11:27:15.580Z,55
2016-02-07T11:28:15.597Z,60
2016-02-07T11:29:15.598Z,60
2016-02-07T11:30:15.617Z,60
2016-02-07T11:31:15.667Z,60
2016-02-07T11:32:15.716Z,55
2016-02-07T11:33:15.796Z,65
2016-02-07T11:34:28.455Z,65
2016-02-07T11:35:15.880Z,65
2016-02-07T11:36:15.805Z,60
2016-02-07T11:37:15.869Z,65
2016-02-07T11:38:15.841Z,65
2016-02-07T11:39:15.874Z,60
2016-02-07T11:40:15.895Z,65
2016-02-07T11:41:15.929Z,70
2016-02-07T11:42:16.087Z,70
2016-02-07T11:43:16.012Z,70
2016-02-07T11:44:16.171Z,60
2016-02-07T11:45:16.673Z,55
2016-02-07T11:46:16.302Z,55
2016-02-07T11:47:16.148Z,55
2016-02-07T11:48:16.182Z,60
2016-02-07T11:49:16.169Z,65
2016-02-07T11:50:16.234Z,65
2016-02-07T11:51:16.284Z,65
2016-02-07T11:52:17.803Z,70
2016-02-07T11:53:16.385Z,75
2016-02-07T11:54:16.341Z,65
2016-02-07T11:55:16.500Z,55
2016-02-07T11:56:16.393Z,55
2016-02-07T11:57:16.552Z,50
2016-02-07T11:58:16.554Z,55
2016-02-07T11:59:16.510Z,50
2016-02-07T12:00:16.561Z,50
2016-02-07T12:01:16.580Z,50
2016-02-07T12:02:16.629Z,45
2016-02-07T12:03:16.616Z,50
2016-02-07T12:04:16.774Z,50
2016-02-07T12:05:16.653Z,50
2016-02-07T12:06:16.723Z,45
2016-02-07T12:07:16.694Z,45
2016-02-07T12:08:16.728Z,50
2016-02-07T12:09:16.778Z,50
2016-02-07T12:10:16.812Z,55
2016-02-07T12:11:16.954Z,55
2016-02-07T12:12:23.176Z,55
2016-02-07T12:13:17.210Z,55
2016-02-07T12:14:16.902Z,55
2016-02-07T12:15:16.967Z,55
2016-02-07T12:16:17.376Z,60
2016-02-07T12:17:17.019Z,60
2016-02-07T12:18:17.052Z,60
2016-02-07T12:19:29.806Z,60
2016-02-07T12:20:17.090Z,60
2016-02-07T12:21:17.139Z,60
2016-02-07T12:22:17.251Z,60
2016-02-07T12:23:17.141Z,60
2016-02-07T12:24:17.378Z,60
2016-02-07T12:25:17.257Z,60
2016-02-07T12:26:17.135Z,55
2016-02-07T12:27:17.311Z,55
2016-02-07T12:28:17.328Z,55
2016-02-07T12:29:17.347Z,55
2016-02-07T12:30:17.381Z,55
2016-02-07T12:31:17.399Z,55
2016-02-07T12:32:23.714Z,55
2016-02-07T12:33:17.547Z,55
2016-02-07T12:34:17.518Z,55
2016-02-07T12:35:17.618Z,55
2016-02-07T12:36:17.557Z,55
2016-02-07T12:37:17.653Z,55
2016-02-07T12:38:17.626Z,50
2016-02-07T12:39:30.362Z,50
2016-02-07T12:40:17.631Z,50
2016-02-07T12:41:43.668Z,55
2016-02-07T12:42:17.762Z,55
2016-02-07T12:43:17.890Z,55
2016-02-07T12:44:17.033Z,55
2016-02-07T12:45:17.911Z,60
2016-02-07T12:46:17.929Z,60
2016-02-07T12:47:17.901Z,60
2016-02-07T12:48:17.951Z,60
2016-02-07T12:49:30.673Z,60
2016-02-07T12:50:17.971Z,60
2016-02-07T12:51:18.022Z,55
2016-02-07T12:52:18.024Z,55
2016-02-07T12:53:18.043Z,55
2016-02-07T12:54:18.064Z,60
2016-02-07T12:55:18.208Z,60
2016-02-07T12:56:18.150Z,60
2016-02-07T12:57:18.169Z,60
2016-02-07T12:58:18.437Z,60
2016-02-07T12:59:18.221Z,60
2016-02-07T13:00:18.207Z,60
2016-02-07T13:01:18.289Z,60
2016-02-07T13:02:18.433Z,60
2016-02-07T13:03:18.342Z,60
2016-02-07T13:04:18.424Z,60
2016-02-07T13:05:18.379Z,60
2016-02-07T13:06:18.413Z,60
2016-02-07T13:07:18.477Z,60
2016-02-07T13:08:18.496Z,60
2016-02-07T13:09:18.530Z,60
2016-02-07T13:10:18.548Z,60
2016-02-07T13:11:18.567Z,60
2016-02-07T13:12:18.663Z,65
2016-02-07T13:13:18.634Z,60
2016-02-07T13:14:18.653Z,60
2016-02-07T13:15:18.749Z,60
2016-02-07T13:16:18.768Z,60
2016-02-07T13:17:18.879Z,55
2016-02-07T13:18:18.773Z,55
2016-02-07T13:19:18.854Z,55
2016-02-07T13:20:18.842Z,55
2016-02-07T13:21:18.859Z,50
2016-02-07T13:22:18.909Z,50
2016-02-07T13:23:18.928Z,50
2016-02-07T13:24:19.137Z,50
2016-02-07T13:25:18.986Z,50
2016-02-07T13:26:19.177Z,50
2016-02-07T13:27:19.054Z,50
2016-02-07T13:28:19.197Z,50
2016-02-07T13:29:19.090Z,50
2016-02-07T13:30:19.156Z,50
2016-02-07T13:31:19.174Z,50
2016-02-07T13:32:19.192Z,50
2016-02-07T13:33:19.210Z,50
2016-02-07T13:34:19.292Z,50
2016-02-07T13:35:19.326Z,50
2016-02-07T13:36:19.348Z,50
2016-02-07T13:37:19.414Z,50
2016-02-07T13:38:19.385Z,50
2016-02-07T13:39:19.450Z,50
2016-02-07T13:40:22.953Z,45
2016-02-07T13:41:19.456Z,45
2016-02-07T13:42:19.489Z,45
2016-02-07T13:43:19.539Z,45
2016-02-07T13:44:19.574Z,45
2016-02-07T13:45:19.717Z,45
2016-02-07T13:46:19.689Z,45
2016-02-07T13:47:19.723Z,45
2016-02-07T13:48:19.694Z,40
2016-02-07T13:49:22.136Z,40
2016-02-07T13:50:19.717Z,35
2016-02-07T13:51:19.844Z,30
2016-02-07T13:52:19.816Z,30
2016-02-07T13:53:19.897Z,30
2016-02-07T13:54:19.823Z,30
2016-02-07T13:55:19.951Z,30
2016-02-07T13:56:19.938Z,30
2016-02-07T13:57:32.679Z,30
2016-02-07T13:58:20.557Z,35
2016-02-07T13:59:20.044Z,40
2016-02-07T14:00:20.032Z,40
2016-02-07T14:01:20.034Z,45
2016-02-07T14:02:20.099Z,40
2016-02-07T14:03:20.101Z,45
2016-02-07T14:04:20.260Z,45
2016-02-07T14:05:20.154Z,45
2016-02-07T14:06:20.218Z,45
2016-02-07T14:07:20.221Z,45
2016-02-07T14:08:20.318Z,45
2016-02-07T14:09:20.273Z,45
2016-02-07T14:10:20.311Z,45
2016-02-07T14:11:20.393Z,45
2016-02-07T14:12:20.473Z,45
2016-02-07T14:13:20.585Z,45
2016-02-07T14:14:20.432Z,45
2016-02-07T14:15:20.481Z,45
2016-02-07T14:16:20.516Z,45
2016-02-07T14:17:20.549Z,40
2016-02-07T14:18:20.554Z,40
2016-02-07T14:19:20.603Z,35
2016-02-07T14:20:20.606Z,35
2016-02-07T14:21:20.639Z,35
2016-02-07T14:22:20.720Z,35
2016-02-07T14:23:20.692Z,35
2016-02-07T14:24:20.837Z,35
2016-02-07T14:25:20.714Z,35
2016-02-07T14:26:20.875Z,35
2016-02-07T14:27:20.799Z,35
2016-02-07T14:28:21.068Z,30
2016-02-07T14:29:20.867Z,30
2016-02-07T14:30:20.948Z,30
2016-02-07T14:31:20.936Z,30
2016-02-07T14:32:20.954Z,30
2016-02-07T14:33:21.145Z,30
2016-02-07T14:34:21.242Z,30
2016-02-07T14:35:21.072Z,30
2016-02-07T14:36:21.075Z,30
2016-02-07T14:37:21.203Z,30
2016-02-07T14:38:21.159Z,25
2016-02-07T14:39:21.177Z,25
2016-02-07T14:40:21.415Z,25
2016-02-07T14:41:21.199Z,25
2016-02-07T14:42:21.232Z,25
2016-02-07T14:43:21.267Z,25
2016-02-07T14:44:21.378Z,20
2016-02-07T14:45:21.321Z,20
2016-02-07T14:46:21.356Z,20
2016-02-07T14:47:21.374Z,20
2016-02-07T14:48:21.486Z,20
2016-02-07T14:49:21.457Z,20
2016-02-07T14:50:21.522Z,15
2016-02-07T14:51:22.587Z,15
2016-02-07T14:52:21.559Z,15
2016-02-07T14:53:21.595Z,15
2016-02-07T14:54:21.598Z,15
2016-02-07T14:55:21.617Z,15
2016-02-07T14:56:21.668Z,15
2016-02-07T14:57:21.780Z,15
2016-02-07T14:58:21.705Z,15
2016-02-07T14:59:21.754Z,15
2016-02-07T15:00:21.788Z,10
2016-02-07T15:01:21.791Z,15
2016-02-07T15:02:21.824Z,10
2016-02-07T15:03:21.890Z,10
2016-02-07T15:04:21.942Z,10
2016-02-07T15:05:21.991Z,15
2016-02-07T15:06:22.042Z,10
2016-02-07T15:07:22.607Z,10
2016-02-07T15:08:22.031Z,10
2016-02-07T15:09:22.065Z,15
2016-02-07T15:10:22.099Z,10